createdAt,value
2018-05-04T00:01:40.211Z,96.60
2018-05-04T00:04:06.848Z,96.80
2018-05-04T00:06:33.630Z,97.00
2018-05-04T00:09:01.029Z,97.80
2018-05-04T00:11:27.669Z,97.50
2018-05-04T00:13:54.339Z,97.60
2018-05-04T00:16:27.970Z,97.40
2018-05-04T00:18:55.385Z,97.60
2018-05-04T00:21:22.009Z,97.60
2018-05-04T00:23:48.770Z,97.90
2018-05-04T00:26:16.234Z,98.30
2018-05-04T00:28:43.017Z,98.30
2018-05-04T00:31:09.770Z,98.20
2018-05-04T00:33:36.386Z,98.40
2018-05-04T00:36:03.135Z,98.60
2018-05-04T00:38:29.856Z,98.20
2018-05-04T00:40:56.499Z,98.30
2018-05-04T00:43:23.359Z,98.40
2018-05-04T00:45:50.002Z,98.40
2018-05-04T00:48:16.733Z,98.90
2018-05-04T00:50:43.409Z,99.00
2018-05-04T00:53:10.081Z,98.90
2018-05-04T00:55:37.455Z,99.10
2018-05-04T00:58:04.170Z,99.10
2018-05-04T01:00:30.862Z,98.90
2018-05-04T01:02:57.514Z,99.40
2018-05-04T01:05:24.168Z,99.40
2018-05-04T01:07:52.280Z,99.60
2018-05-04T01:10:19.083Z,99.70
2018-05-04T01:12:45.710Z,99.50
2018-05-04T01:15:12.940Z,99.80
2018-05-04T01:17:39.576Z,99.90
2018-05-04T01:20:06.245Z,99.90
2018-05-04T01:22:33.690Z,99.90
2018-05-04T01:25:00.351Z,99.90
2018-05-04T01:27:27.107Z,99.90
2018-05-04T01:29:53.755Z,99.90
2018-05-04T01:32:20.453Z,99.90
2018-05-04T01:34:47.110Z,99.90
2018-05-04T01:37:14.514Z,99.90
2018-05-04T01:39:41.199Z,99.90
2018-05-04T01:42:07.872Z,99.90
2018-05-04T01:44:34.717Z,99.90
2018-05-04T01:47:01.561Z,99.90
2018-05-04T01:49:28.664Z,99.90
2018-05-04T01:51:56.065Z,99.90
2018-05-04T01:54:22.807Z,99.90
2018-05-04T01:56:49.517Z,99.90
2018-05-04T01:59:16.234Z,99.90
2018-05-04T02:01:42.915Z,99.90
2018-05-04T02:04:09.613Z,99.90
2018-05-04T02:06:37.070Z,99.90
2018-05-04T02:09:04.605Z,99.90
2018-05-04T02:11:31.282Z,99.90
2018-05-04T02:13:58.773Z,99.90
2018-05-04T02:16:25.612Z,99.90
2018-05-04T02:18:52.278Z,99.90
2018-05-04T02:21:18.991Z,99.90
2018-05-04T02:23:45.618Z,99.90
2018-05-04T02:26:13.012Z,99.90
2018-05-04T02:28:39.929Z,99.90
2018-05-04T02:31:06.734Z,99.90
2018-05-04T02:33:34.143Z,99.90
2018-05-04T02:36:00.848Z,99.90
2018-05-04T02:38:27.567Z,99.90
2018-05-04T02:40:55.032Z,99.90
2018-05-04T02:43:21.725Z,99.90
2018-05-04T02:45:48.356Z,99.90
2018-05-04T02:48:15.048Z,99.90
2018-05-04T02:50:41.788Z,99.90
2018-05-04T02:53:09.186Z,99.90
2018-05-04T02:55:35.910Z,99.90
2018-05-04T02:58:02.615Z,99.90
2018-05-04T03:00:30.032Z,99.90
2018-05-04T03:02:56.682Z,99.90
2018-05-04T03:05:23.355Z,99.90
2018-05-04T03:07:50.822Z,99.90
2018-05-04T03:10:17.925Z,99.90
2018-05-04T03:12:44.603Z,99.90
2018-05-04T03:15:11.990Z,99.90
2018-05-04T03:17:38.719Z,99.90
2018-05-04T03:20:05.378Z,99.90
2018-05-04T03:22:32.098Z,99.90
2018-05-04T03:24:58.741Z,99.90
2018-05-04T03:27:25.436Z,99.90
2018-05-04T03:29:52.079Z,99.90
2018-05-04T03:32:19.673Z,99.90
2018-05-04T03:34:46.533Z,99.90
2018-05-04T03:37:13.225Z,99.90
2018-05-04T03:39:40.779Z,99.90
2018-05-04T03:42:08.195Z,99.90
2018-05-04T03:44:34.918Z,99.90
2018-05-04T03:47:02.018Z,99.90
2018-05-04T03:49:28.639Z,99.90
2018-05-04T03:51:55.463Z,99.90
2018-05-04T03:54:22.207Z,99.90
2018-05-04T03:56:48.909Z,99.90
2018-05-04T03:59:27.921Z,99.90
2018-05-04T04:02:06.971Z,99.90
2018-05-04T04:04:35.348Z,99.90
2018-05-04T04:07:02.091Z,99.90
2018-05-04T04:09:28.765Z,99.90
2018-05-04T04:11:55.588Z,99.90
2018-05-04T04:14:22.268Z,99.90
2018-05-04T04:16:49.698Z,99.90
2018-05-04T04:19:16.427Z,99.90
2018-05-04T04:21:43.071Z,99.90
2018-05-04T04:24:09.770Z,99.90
2018-05-04T04:26:36.413Z,99.90
2018-05-04T04:29:03.257Z,99.90
2018-05-04T04:31:29.889Z,99.90
2018-05-04T04:33:56.534Z,99.90
2018-05-04T04:36:23.272Z,99.90
2018-05-04T04:38:49.971Z,99.90
2018-05-04T04:41:16.682Z,99.90
2018-05-04T04:43:43.326Z,99.90
2018-05-04T04:46:10.012Z,99.90
2018-05-04T04:48:36.648Z,99.90
2018-05-04T04:51:03.323Z,99.90
2018-05-04T04:53:29.960Z,99.90
2018-05-04T04:55:56.682Z,99.90
2018-05-04T04:58:23.419Z,99.90
2018-05-04T05:00:50.082Z,99.90
2018-05-04T05:03:16.735Z,99.90
2018-05-04T05:05:43.414Z,99.90
2018-05-04T05:08:10.810Z,99.90
2018-05-04T05:10:37.483Z,99.90
2018-05-04T05:13:05.909Z,99.90
2018-05-04T05:15:32.567Z,99.90
2018-05-04T05:17:59.254Z,99.90
2018-05-04T05:20:25.920Z,99.90
2018-05-04T05:22:52.980Z,99.90
2018-05-04T05:25:19.650Z,99.90
2018-05-04T05:27:46.450Z,99.90
2018-05-04T05:30:13.155Z,99.90
2018-05-04T05:32:40.646Z,99.90
2018-05-04T05:35:07.297Z,99.90
2018-05-04T05:37:34.410Z,99.90
2018-05-04T05:40:01.114Z,99.30
2018-05-04T05:42:28.557Z,98.50
2018-05-04T05:44:56.732Z,97.80
2018-05-04T05:47:23.516Z,97.70
2018-05-04T05:49:50.940Z,97.10
2018-05-04T05:52:17.676Z,97.10
2018-05-04T05:54:45.820Z,95.80
2018-05-04T05:57:12.485Z,95.80
2018-05-04T05:59:39.521Z,95.40
2018-05-04T06:02:06.198Z,94.70
2018-05-04T06:04:32.973Z,94.20
2018-05-04T06:06:59.890Z,93.80
2018-05-04T06:09:26.565Z,93.30
2018-05-04T06:11:53.947Z,92.20
2018-05-04T06:14:20.570Z,92.10
2018-05-04T06:16:47.298Z,92.00
2018-05-04T06:19:13.985Z,91.50
2018-05-04T06:21:40.670Z,91.40
2018-05-04T06:24:07.375Z,91.10
2018-05-04T06:26:34.043Z,90.80
2018-05-04T06:29:00.784Z,90.50
2018-05-04T06:31:27.828Z,90.10
2018-05-04T06:33:54.640Z,90.10
2018-05-04T06:36:21.307Z,89.20
2018-05-04T06:38:48.073Z,87.20
2018-05-04T06:41:14.730Z,86.00
2018-05-04T06:43:42.320Z,84.60
2018-05-04T06:46:09.092Z,84.60
2018-05-04T06:48:35.780Z,84.10
2018-05-04T06:51:03.221Z,81.50
2018-05-04T06:53:29.862Z,81.10
2018-05-04T06:55:56.551Z,79.70
2018-05-04T06:58:23.637Z,78.40
2018-05-04T07:00:50.317Z,78.30
2018-05-04T07:03:17.776Z,78.00
2018-05-04T07:05:45.299Z,77.40
2018-05-04T07:08:12.104Z,77.20
2018-05-04T07:10:38.822Z,77.00
2018-05-04T07:13:05.516Z,77.20
2018-05-04T07:15:32.208Z,76.50
2018-05-04T07:17:59.594Z,74.30
2018-05-04T07:20:26.268Z,74.00
2018-05-04T07:22:52.904Z,73.60
2018-05-04T07:25:19.637Z,72.70
2018-05-04T07:27:46.405Z,72.20
2018-05-04T07:30:13.964Z,71.30
2018-05-04T07:32:41.333Z,70.70
2018-05-04T07:35:07.986Z,70.50
2018-05-04T07:37:34.694Z,70.00
2018-05-04T07:40:02.114Z,69.00
2018-05-04T07:42:28.826Z,68.00
2018-05-04T07:44:55.532Z,67.40
2018-05-04T07:47:22.964Z,67.10
2018-05-04T07:49:49.631Z,67.10
2018-05-04T07:52:17.033Z,66.20
2018-05-04T07:54:44.611Z,66.10
2018-05-04T07:57:12.140Z,65.80
2018-05-04T07:59:38.866Z,65.70
2018-05-04T08:02:05.605Z,65.10
2018-05-04T08:04:32.259Z,64.20
2018-05-04T08:06:59.056Z,63.70
2018-05-04T08:09:26.466Z,63.20
2018-05-04T08:11:53.179Z,63.10
2018-05-04T08:14:19.829Z,62.40
2018-05-04T08:16:46.761Z,61.40
2018-05-04T08:19:13.502Z,61.20
2018-05-04T08:21:40.187Z,60.30
2018-05-04T08:24:06.865Z,60.50
2018-05-04T08:26:33.588Z,60.10
2018-05-04T08:29:00.768Z,59.70
2018-05-04T08:31:27.722Z,58.10
2018-05-04T08:33:54.392Z,57.40
2018-05-04T08:36:21.191Z,57.20
2018-05-04T08:38:48.005Z,56.40
2018-05-04T08:41:15.490Z,55.10
2018-05-04T08:43:42.132Z,55.00
2018-05-04T08:46:08.795Z,54.10
2018-05-04T08:48:36.325Z,52.60
2018-05-04T08:51:03.105Z,52.50
2018-05-04T08:53:29.706Z,52.50
2018-05-04T08:55:56.516Z,52.40
2018-05-04T08:58:23.912Z,51.70
2018-05-04T09:00:50.608Z,51.50
2018-05-04T09:03:18.058Z,52.80
2018-05-04T09:05:44.826Z,52.80
2018-05-04T09:08:11.470Z,51.50
2018-05-04T09:10:38.303Z,51.60
2018-05-04T09:13:05.054Z,50.50
2018-05-04T09:15:31.699Z,49.80
2018-05-04T09:17:58.368Z,48.80
2018-05-04T09:20:25.073Z,49.40
2018-05-04T09:22:51.914Z,50.10
2018-05-04T09:25:18.684Z,50.10
2018-05-04T09:27:47.217Z,48.80
2018-05-04T09:30:14.064Z,48.20
2018-05-04T09:32:40.883Z,47.70
2018-05-04T09:35:08.251Z,48.30
2018-05-04T09:37:34.979Z,48.00
2018-05-04T09:40:01.718Z,49.40
2018-05-04T09:42:28.328Z,47.80
2018-05-04T09:44:55.036Z,47.50
2018-05-04T09:47:21.672Z,46.70
2018-05-04T09:49:48.347Z,47.20
2018-05-04T09:52:15.028Z,47.00
2018-05-04T09:54:42.415Z,46.80
2018-05-04T09:57:09.090Z,46.70
2018-05-04T09:59:36.116Z,47.80
2018-05-04T10:02:02.823Z,46.20
2018-05-04T10:04:29.506Z,45.60
2018-05-04T10:06:56.266Z,46.40
2018-05-04T10:09:22.915Z,46.20
2018-05-04T10:11:50.319Z,46.60
2018-05-04T10:14:16.955Z,46.20
2018-05-04T10:16:43.656Z,47.50
2018-05-04T10:19:11.130Z,46.50
2018-05-04T10:21:37.762Z,46.40
2018-05-04T10:24:04.778Z,46.30
2018-05-04T10:26:32.169Z,46.80
2018-05-04T10:28:58.854Z,46.30
2018-05-04T10:31:25.599Z,46.30
2018-05-04T10:33:52.267Z,46.90
2018-05-04T10:36:19.024Z,45.90
2018-05-04T10:38:45.711Z,45.60
2018-05-04T10:41:12.429Z,44.70
2018-05-04T10:43:39.503Z,44.80
2018-05-04T10:46:06.248Z,44.30
2018-05-04T10:48:32.932Z,44.80
2018-05-04T10:51:00.007Z,44.80
2018-05-04T10:53:26.721Z,43.90
2018-05-04T10:55:53.421Z,43.90
2018-05-04T10:58:20.862Z,43.50
2018-05-04T11:00:47.532Z,43.20
2018-05-04T11:03:14.630Z,44.00
2018-05-04T11:05:41.291Z,43.60
2018-05-04T11:08:07.968Z,43.30
2018-05-04T11:10:34.651Z,43.20
2018-05-04T11:13:01.334Z,42.80
2018-05-04T11:15:28.059Z,44.30
2018-05-04T11:17:55.496Z,43.40
2018-05-04T11:20:22.249Z,43.30
2018-05-04T11:22:49.745Z,44.30
2018-05-04T11:25:16.415Z,44.30
2018-05-04T11:27:43.224Z,43.30
2018-05-04T11:30:09.968Z,43.10
2018-05-04T11:32:36.703Z,42.70
2018-05-04T11:35:03.337Z,42.50
2018-05-04T11:37:30.035Z,42.20
2018-05-04T11:39:56.682Z,41.90
2018-05-04T11:42:24.381Z,42.10
2018-05-04T11:44:51.535Z,42.00
2018-05-04T11:47:18.270Z,42.40
2018-05-04T11:49:44.908Z,42.40
2018-05-04T11:52:12.096Z,42.20
2018-05-04T11:54:38.741Z,41.80
2018-05-04T11:57:05.400Z,42.20
2018-05-04T11:59:39.775Z,42.80
2018-05-04T12:02:06.491Z,42.80
2018-05-04T12:04:33.198Z,42.80
2018-05-04T12:06:59.853Z,42.70
2018-05-04T12:09:27.531Z,42.70
2018-05-04T12:11:54.240Z,42.70
2018-05-04T12:14:21.611Z,42.00
2018-05-04T12:16:48.294Z,41.40
2018-05-04T12:19:14.985Z,42.20
2018-05-04T12:21:42.464Z,41.80
2018-05-04T12:24:09.112Z,41.80
2018-05-04T12:26:35.790Z,41.10
2018-05-04T12:29:03.251Z,40.90
2018-05-04T12:31:29.904Z,40.80
2018-05-04T12:33:57.415Z,41.00
2018-05-04T12:36:24.097Z,40.80
2018-05-04T12:38:50.779Z,40.60
2018-05-04T12:41:17.408Z,40.90
2018-05-04T12:43:44.094Z,40.90
2018-05-04T12:46:10.879Z,40.50
2018-05-04T12:48:37.541Z,40.70
2018-05-04T12:51:04.205Z,40.80
2018-05-04T12:53:30.914Z,41.40
2018-05-04T12:55:57.585Z,40.40
2018-05-04T12:58:24.254Z,40.30
2018-05-04T13:00:50.932Z,40.10
2018-05-04T13:03:17.635Z,39.70
2018-05-04T13:05:44.337Z,39.90
2018-05-04T13:08:10.991Z,41.70
2018-05-04T13:10:37.690Z,41.30
2018-05-04T13:13:04.379Z,41.00
2018-05-04T13:15:31.871Z,41.90
2018-05-04T13:17:58.566Z,41.90
2018-05-04T13:20:25.963Z,41.90
2018-05-04T13:22:52.702Z,41.80
2018-05-04T13:25:19.370Z,42.00
2018-05-04T13:27:46.036Z,42.20
2018-05-04T13:30:12.723Z,42.50
2018-05-04T13:32:39.419Z,42.30
2018-05-04T13:35:07.001Z,42.40
2018-05-04T13:37:34.467Z,42.20
2018-05-04T13:40:01.112Z,42.30
2018-05-04T13:42:27.923Z,42.20
2018-05-04T13:44:55.672Z,42.20
2018-05-04T13:47:23.170Z,40.90
2018-05-04T13:49:50.015Z,41.40
2018-05-04T13:52:16.815Z,41.70
2018-05-04T13:54:43.468Z,41.90
2018-05-04T13:57:10.182Z,42.50
2018-05-04T13:59:36.811Z,42.20
2018-05-04T14:02:04.163Z,42.50
2018-05-04T14:04:30.979Z,42.60
2018-05-04T14:06:57.682Z,42.70
2018-05-04T14:09:24.372Z,42.70
2018-05-04T14:11:51.043Z,43.00
2018-05-04T14:14:17.849Z,43.20
2018-05-04T14:16:44.510Z,43.00
2018-05-04T14:19:11.146Z,43.60
2018-05-04T14:21:37.829Z,44.10
2018-05-04T14:24:04.462Z,44.20
2018-05-04T14:26:31.170Z,44.00
2018-05-04T14:28:57.828Z,44.20
2018-05-04T14:31:25.228Z,44.10
2018-05-04T14:33:51.942Z,44.10
2018-05-04T14:36:18.623Z,44.20
2018-05-04T14:38:45.295Z,44.40
2018-05-04T14:41:12.031Z,44.00
2018-05-04T14:43:39.455Z,44.00
2018-05-04T14:46:06.154Z,44.00
2018-05-04T14:48:32.835Z,43.70
2018-05-04T14:50:59.506Z,44.30
2018-05-04T14:53:26.905Z,45.50
2018-05-04T14:55:53.647Z,45.40
2018-05-04T14:58:20.294Z,45.70
2018-05-04T15:00:47.107Z,45.90
2018-05-04T15:03:13.814Z,46.30
2018-05-04T15:05:41.638Z,45.30
2018-05-04T15:08:08.349Z,45.20
2018-05-04T15:10:34.991Z,45.00
2018-05-04T15:13:01.657Z,45.10
2018-05-04T15:15:28.363Z,44.70
2018-05-04T15:17:55.051Z,44.40
2018-05-04T15:20:21.723Z,44.00
2018-05-04T15:22:49.112Z,44.50
2018-05-04T15:25:16.171Z,44.50
2018-05-04T15:27:43.631Z,44.90
2018-05-04T15:30:10.282Z,44.90
2018-05-04T15:32:37.080Z,44.20
2018-05-04T15:35:03.756Z,44.10
2018-05-04T15:37:30.794Z,43.80
2018-05-04T15:39:57.495Z,43.80
2018-05-04T15:42:24.866Z,43.70
2018-05-04T15:44:51.803Z,43.70
2018-05-04T15:47:18.459Z,44.10
2018-05-04T15:49:45.526Z,45.00
2018-05-04T15:52:12.230Z,45.50
2018-05-04T15:54:39.463Z,45.90
2018-05-04T15:57:06.659Z,46.70
2018-05-04T15:59:33.876Z,46.60
2018-05-04T16:02:00.592Z,46.70
2018-05-04T16:04:28.291Z,47.20
2018-05-04T16:06:54.986Z,47.20
2018-05-04T16:09:22.353Z,47.20
2018-05-04T16:11:49.793Z,47.40
2018-05-04T16:14:17.698Z,47.60
2018-05-04T16:16:44.455Z,47.50
2018-05-04T16:19:11.138Z,47.70
2018-05-04T16:21:38.023Z,47.80
2018-05-04T16:24:04.691Z,48.10
2018-05-04T16:26:31.387Z,48.60
2018-05-04T16:28:58.141Z,48.50
2018-05-04T16:31:25.084Z,48.60
2018-05-04T16:33:51.823Z,48.40
2018-05-04T16:36:18.771Z,48.60
2018-05-04T16:38:45.467Z,48.70
2018-05-04T16:41:12.556Z,48.70
2018-05-04T16:43:39.287Z,48.90
2018-05-04T16:46:06.620Z,49.00
2018-05-04T16:48:40.832Z,50.00
2018-05-04T16:51:10.780Z,49.50
2018-05-04T16:53:37.604Z,49.60
2018-05-04T16:56:05.487Z,50.10
2018-05-04T16:58:32.187Z,50.10
2018-05-04T17:00:58.852Z,50.80
2018-05-04T17:03:25.720Z,50.20
2018-05-04T17:05:52.422Z,50.50
2018-05-04T17:08:19.859Z,50.90
2018-05-04T17:10:46.572Z,50.80
2018-05-04T17:13:13.350Z,51.80
2018-05-04T17:15:40.817Z,51.40
2018-05-04T17:18:08.283Z,51.60
2018-05-04T17:20:34.964Z,51.50
2018-05-04T17:23:01.664Z,51.70
2018-05-04T17:25:28.393Z,52.00
2018-05-04T17:27:55.078Z,52.30
2018-05-04T17:30:21.807Z,52.40
2018-05-04T17:32:48.462Z,52.40
2018-05-04T17:35:15.183Z,52.60
2018-05-04T17:37:41.913Z,53.00
2018-05-04T17:40:08.673Z,53.30
2018-05-04T17:42:35.755Z,53.40
2018-05-04T17:45:03.190Z,54.10
2018-05-04T17:47:30.285Z,54.20
2018-05-04T17:49:57.752Z,54.80
2018-05-04T17:52:24.497Z,54.80
2018-05-04T17:54:51.627Z,55.00
2018-05-04T17:57:19.108Z,55.20
2018-05-04T17:59:45.817Z,55.20
2018-05-04T18:02:12.495Z,55.40
2018-05-04T18:04:39.298Z,55.60
2018-05-04T18:07:06.725Z,56.20
2018-05-04T18:09:33.349Z,56.30
2018-05-04T18:12:00.540Z,56.60
2018-05-04T18:14:27.996Z,57.30
2018-05-04T18:16:55.369Z,57.60
2018-05-04T18:19:22.024Z,57.70
2018-05-04T18:21:48.731Z,57.80
2018-05-04T18:24:16.170Z,58.00
2018-05-04T18:26:42.849Z,58.10
2018-05-04T18:29:09.559Z,58.20
2018-05-04T18:31:36.977Z,58.20
2018-05-04T18:34:03.650Z,58.60
2018-05-04T18:36:31.060Z,58.90
2018-05-04T18:38:57.764Z,59.00
2018-05-04T18:41:25.178Z,59.30
2018-05-04T18:43:51.977Z,59.40
2018-05-04T18:46:18.662Z,59.40
2018-05-04T18:48:45.346Z,59.60
2018-05-04T18:51:12.068Z,59.70
2018-05-04T18:53:39.539Z,60.10
2018-05-04T18:56:06.255Z,60.10
2018-05-04T18:58:33.661Z,60.70
2018-05-04T19:01:00.460Z,60.80
2018-05-04T19:03:28.048Z,61.80
2018-05-04T19:05:54.718Z,61.30
2018-05-04T19:08:21.544Z,61.60
2018-05-04T19:10:48.218Z,62.10
2018-05-04T19:13:15.629Z,62.90
2018-05-04T19:15:42.372Z,63.00
2018-05-04T19:18:09.091Z,63.40
2018-05-04T19:20:35.848Z,63.70
2018-05-04T19:23:02.828Z,64.10
2018-05-04T19:25:29.645Z,64.50
2018-05-04T19:27:56.369Z,64.80
2018-05-04T19:30:23.109Z,65.10
2018-05-04T19:32:49.987Z,65.40
2018-05-04T19:35:16.650Z,65.70
2018-05-04T19:37:43.332Z,66.00
2018-05-04T19:40:10.011Z,66.30
2018-05-04T19:42:36.775Z,66.60
2018-05-04T19:45:04.215Z,67.30
2018-05-04T19:47:31.650Z,67.50
2018-05-04T19:49:58.317Z,67.50
2018-05-04T19:52:25.852Z,68.20
2018-05-04T19:54:52.496Z,68.30
2018-05-04T19:57:19.179Z,68.50
2018-05-04T19:59:45.933Z,68.70
2018-05-04T20:02:12.670Z,69.00
2018-05-04T20:04:39.308Z,69.40
2018-05-04T20:07:05.998Z,69.70
2018-05-04T20:09:34.115Z,70.50
2018-05-04T20:12:00.784Z,70.70
2018-05-04T20:14:27.440Z,70.60
2018-05-04T20:16:54.102Z,71.00
2018-05-04T20:19:21.510Z,71.60
2018-05-04T20:21:48.305Z,71.60
2018-05-04T20:24:15.790Z,72.20
2018-05-04T20:26:42.450Z,72.20
2018-05-04T20:29:09.224Z,72.20
2018-05-04T20:31:35.875Z,72.50
2018-05-04T20:34:03.640Z,72.70
2018-05-04T20:36:30.355Z,73.60
2018-05-04T20:38:57.031Z,72.70
2018-05-04T20:41:24.452Z,72.80
2018-05-04T20:43:51.136Z,72.90
2018-05-04T20:46:17.792Z,74.00
2018-05-04T20:48:44.518Z,73.10
2018-05-04T20:51:11.223Z,73.50
2018-05-04T20:53:38.715Z,74.40
2018-05-04T20:56:05.454Z,75.10
2018-05-04T20:58:32.162Z,74.80
2018-05-04T21:00:58.900Z,75.20
2018-05-04T21:03:26.356Z,76.40
2018-05-04T21:05:53.756Z,76.70
2018-05-04T21:08:20.606Z,76.90
2018-05-04T21:10:47.304Z,77.00
2018-05-04T21:13:14.068Z,77.30
2018-05-04T21:15:41.628Z,77.60
2018-05-04T21:18:08.320Z,77.80
2018-05-04T21:20:35.108Z,78.10
2018-05-04T21:23:01.771Z,78.20
2018-05-04T21:25:28.550Z,78.50
2018-05-04T21:27:55.331Z,78.90
2018-05-04T21:30:22.067Z,79.20
2018-05-04T21:32:48.725Z,80.20
2018-05-04T21:35:15.666Z,79.70
2018-05-04T21:37:42.388Z,80.10
2018-05-04T21:40:09.061Z,80.70
2018-05-04T21:42:35.746Z,80.60
2018-05-04T21:45:03.250Z,81.10
2018-05-04T21:47:30.031Z,81.30
2018-05-04T21:49:57.431Z,81.80
2018-05-04T21:52:24.149Z,81.20
2018-05-04T21:54:50.903Z,81.00
2018-05-04T21:57:17.713Z,80.90
2018-05-04T21:59:45.402Z,80.80
2018-05-04T22:02:12.081Z,80.80
2018-05-04T22:04:38.958Z,80.80
2018-05-04T22:07:06.373Z,81.10
2018-05-04T22:09:33.184Z,81.10
2018-05-04T22:12:00.127Z,81.10
2018-05-04T22:14:26.766Z,81.40
2018-05-04T22:16:53.476Z,81.60
2018-05-04T22:19:20.157Z,81.90
2018-05-04T22:21:46.984Z,82.10
2018-05-04T22:24:13.813Z,82.90
2018-05-04T22:26:40.768Z,82.60
2018-05-04T22:29:07.415Z,82.80
2018-05-04T22:31:34.079Z,82.90
2018-05-04T22:34:00.920Z,83.30
2018-05-04T22:36:27.586Z,83.50
2018-05-04T22:38:54.970Z,84.00
2018-05-04T22:41:21.723Z,84.20
2018-05-04T22:43:48.396Z,84.60
2018-05-04T22:46:15.090Z,84.60
2018-05-04T22:48:41.914Z,85.10
2018-05-04T22:51:09.516Z,85.50
2018-05-04T22:53:36.158Z,85.60
2018-05-04T22:56:02.825Z,85.60
2018-05-04T22:58:29.583Z,85.90
2018-05-04T23:00:56.976Z,85.60
2018-05-04T23:03:23.710Z,85.80
2018-05-04T23:05:50.418Z,85.60
2018-05-04T23:08:17.828Z,85.90
2018-05-04T23:10:44.555Z,86.20
2018-05-04T23:13:11.285Z,86.10
2018-05-04T23:15:37.949Z,86.20
2018-05-04T23:18:04.634Z,86.50
2018-05-04T23:20:32.033Z,87.20
2018-05-04T23:22:59.549Z,87.00
2018-05-04T23:25:26.968Z,87.20
2018-05-04T23:27:53.758Z,87.40
2018-05-04T23:30:20.718Z,87.40
2018-05-04T23:32:47.425Z,87.70
2018-05-04T23:35:14.915Z,88.40
2018-05-04T23:37:41.724Z,88.60
2018-05-04T23:40:09.152Z,89.00
2018-05-04T23:42:37.304Z,89.70
2018-05-04T23:45:04.003Z,90.00
2018-05-04T23:47:30.694Z,89.40
2018-05-04T23:49:57.643Z,89.80
2018-05-04T23:52:24.286Z,90.00
2018-05-04T23:54:52.525Z,90.40
2018-05-04T23:57:19.951Z,90.20
2018-05-04T23:59:47.342Z,90.30
